Time;durP1;ratioP1;P1;durP2;ratioP2;P2;SDS_P1;SDS_P2;PMS_P1;PMS_P2;Temp;Humidity;BMP_temperature;BMP_pressure;BME280_temperature;BME280_humidity;BME280_pressure;Samples;Min_cycle;Max_cycle;Signal;HPM_P1;HPM_P2
2021/10/25 00:01:51;;;;;;;30.37;13.43;;;3.20;99.90;;;;;;4966188;28;20176;-59
2021/10/25 00:04:17;;;;;;;29.13;12.60;;;3.10;99.90;;;;;;4966822;28;20464;-60
2021/10/25 00:06:43;;;;;;;32.83;14.13;;;3.10;99.90;;;;;;4965574;28;20880;-59
2021/10/25 00:09:09;;;;;;;34.57;14.63;;;3.10;99.90;;;;;;4966359;28;20272;-59
2021/10/25 00:11:34;;;;;;;29.80;13.97;;;3.10;99.90;;;;;;4969486;28;20186;-59
2021/10/25 00:14:00;;;;;;;32.87;12.43;;;3.10;99.90;;;;;;4968461;28;20212;-59
2021/10/25 00:16:25;;;;;;;25.87;12.50;;;3.10;99.90;;;;;;4966336;28;20563;-59
2021/10/25 00:18:52;;;;;;;38.13;13.00;;;3.10;99.90;;;;;;4967876;28;20595;-61
2021/10/25 00:21:17;;;;;;;36.93;13.50;;;3.00;99.90;;;;;;4966598;28;20181;-59
2021/10/25 00:23:43;;;;;;;31.87;13.70;;;3.00;99.90;;;;;;4969078;28;20461;-60
2021/10/25 00:26:09;;;;;;;79.27;16.37;;;3.00;99.90;;;;;;4964155;28;20468;-60
2021/10/25 00:28:34;;;;;;;47.03;15.53;;;3.00;99.90;;;;;;4968127;28;20193;-60
2021/10/25 00:31:00;;;;;;;28.03;13.40;;;3.00;99.90;;;;;;4967426;28;20208;-60
2021/10/25 00:33:26;;;;;;;36.10;15.00;;;3.00;99.90;;;;;;4967415;28;20216;-60
2021/10/25 00:35:53;;;;;;;41.33;15.50;;;3.00;99.90;;;;;;4969159;28;20468;-59
2021/10/25 00:38:19;;;;;;;154.10;15.70;;;2.90;99.90;;;;;;4968329;28;20235;-60
2021/10/25 00:40:45;;;;;;;133.47;18.27;;;2.90;99.90;;;;;;4966596;28;20431;-59
2021/10/25 00:43:10;;;;;;;95.00;17.63;;;2.90;99.90;;;;;;4966408;28;20432;-60
2021/10/25 00:45:36;;;;;;;75.50;15.80;;;2.90;99.90;;;;;;4967965;28;20499;-59
2021/10/25 00:48:02;;;;;;;80.47;16.33;;;2.80;99.90;;;;;;4968989;28;20260;-60
2021/10/25 00:50:28;;;;;;;89.70;13.53;;;2.80;99.90;;;;;;4981302;28;20206;-60
2021/10/25 00:52:54;;;;;;;35.90;12.73;;;2.80;99.90;;;;;;4971607;28;20817;-60
2021/10/25 00:55:21;;;;;;;20.53;10.50;;;2.70;99.90;;;;;;4966930;28;20449;-60
2021/10/25 00:57:47;;;;;;;22.93;10.07;;;2.70;99.90;;;;;;4970810;28;20166;-60
2021/10/25 01:00:12;;;;;;;19.33;9.77;;;2.70;99.90;;;;;;4971774;28;20537;-60
2021/10/25 01:02:40;;;;;;;33.87;9.97;;;2.70;99.90;;;;;;4965896;28;20222;-60
2021/10/25 01:05:06;;;;;;;18.63;10.20;;;2.70;99.90;;;;;;4971362;28;20216;-59
2021/10/25 01:07:33;;;;;;;29.43;11.03;;;2.70;99.90;;;;;;4963697;28;20445;-63
2021/10/25 01:09:59;;;;;;;37.23;10.77;;;2.70;99.90;;;;;;4986427;28;20472;-59
2021/10/25 01:12:26;;;;;;;38.57;11.17;;;2.70;99.90;;;;;;4961940;28;20425;-59
2021/10/25 01:14:51;;;;;;;29.27;10.37;;;2.70;99.90;;;;;;4966842;28;20500;-59
2021/10/25 01:17:17;;;;;;;28.20;10.20;;;2.60;99.90;;;;;;4970529;28;20463;-60
2021/10/25 01:19:43;;;;;;;21.03;9.53;;;2.60;99.90;;;;;;4982673;28;20179;-59
2021/10/25 01:22:08;;;;;;;28.33;10.50;;;2.60;99.90;;;;;;4970345;28;20592;-59
2021/10/25 01:24:34;;;;;;;28.20;10.57;;;2.60;99.90;;;;;;4968459;28;20220;-59
2021/10/25 01:27:00;;;;;;;68.47;10.10;;;2.60;99.90;;;;;;4970180;28;20190;-59
2021/10/25 01:29:25;;;;;;;28.10;9.60;;;2.60;99.90;;;;;;4965532;28;20374;-59
2021/10/25 01:31:51;;;;;;;28.63;10.00;;;2.60;99.90;;;;;;4971642;28;20677;-59
2021/10/25 01:34:17;;;;;;;26.00;10.87;;;2.50;99.90;;;;;;4962246;28;20732;-59
2021/10/25 01:36:42;;;;;;;27.57;10.43;;;2.50;99.90;;;;;;4968431;28;20551;-59
2021/10/25 01:39:09;;;;;;;32.87;10.63;;;2.50;99.90;;;;;;4971654;28;20582;-59
2021/10/25 01:41:35;;;;;;;37.00;11.23;;;2.50;99.90;;;;;;4969818;28;21065;-59
2021/10/25 01:44:02;;;;;;;14.47;9.03;;;2.50;99.90;;;;;;4965479;28;20994;-59
2021/10/25 01:46:28;;;;;;;29.83;9.27;;;2.50;99.90;;;;;;4969575;28;20436;-59
2021/10/25 01:48:54;;;;;;;58.13;12.23;;;2.50;99.90;;;;;;4968504;28;20435;-60
2021/10/25 01:51:20;;;;;;;17.03;10.10;;;2.40;99.90;;;;;;4969806;28;20178;-59
2021/10/25 01:53:46;;;;;;;17.93;10.83;;;2.40;99.90;;;;;;4970821;28;20473;-59
2021/10/25 01:56:13;;;;;;;23.63;9.20;;;2.40;99.90;;;;;;4969555;28;20374;-60
2021/10/25 01:58:38;;;;;;;33.80;10.20;;;2.40;99.90;;;;;;4969605;28;20937;-59
2021/10/25 02:01:05;;;;;;;22.10;9.67;;;2.40;99.90;;;;;;4960602;28;20445;-59
2021/10/25 02:03:34;;;;;;;21.53;9.80;;;2.40;99.90;;;;;;4967259;28;20202;-59
2021/10/25 02:06:00;;;;;;;29.57;9.50;;;2.40;99.90;;;;;;4967363;28;20448;-59
2021/10/25 02:08:26;;;;;;;26.33;10.00;;;2.40;99.90;;;;;;4962921;28;20864;-59
2021/10/25 02:10:52;;;;;;;15.87;9.70;;;2.40;99.90;;;;;;4966452;28;20305;-59
2021/10/25 02:13:19;;;;;;;55.57;11.00;;;2.40;99.90;;;;;;4969885;28;20535;-61
2021/10/25 02:15:45;;;;;;;23.90;11.23;;;2.40;99.90;;;;;;4969925;28;21057;-59
2021/10/25 02:18:12;;;;;;;32.27;11.20;;;2.30;99.90;;;;;;4967373;28;20487;-60
2021/10/25 02:20:39;;;;;;;29.90;12.33;;;2.30;99.90;;;;;;4977278;28;20816;-60
2021/10/25 02:23:06;;;;;;;22.87;10.80;;;2.30;99.90;;;;;;4971021;28;20418;-59
2021/10/25 02:25:33;;;;;;;21.27;10.77;;;2.30;99.90;;;;;;4985017;28;20432;-59
2021/10/25 02:27:59;;;;;;;22.63;11.13;;;2.30;99.90;;;;;;4970107;28;20436;-60
2021/10/25 02:30:24;;;;;;;44.07;11.77;;;2.30;99.90;;;;;;4970777;28;20446;-59
2021/10/25 02:32:50;;;;;;;34.53;11.13;;;2.30;99.90;;;;;;4967297;28;20554;-59
2021/10/25 02:35:16;;;;;;;51.43;11.83;;;2.30;99.90;;;;;;4968147;28;20272;-60
2021/10/25 02:37:42;;;;;;;42.57;11.13;;;2.30;99.90;;;;;;4965107;28;20650;-60
2021/10/25 02:40:09;;;;;;;28.73;10.77;;;2.30;99.90;;;;;;4963566;28;20410;-59
2021/10/25 02:42:34;;;;;;;33.23;10.27;;;2.30;99.90;;;;;;4970210;28;20461;-59
2021/10/25 02:45:00;;;;;;;30.10;10.90;;;2.30;99.90;;;;;;4967169;28;20500;-59
2021/10/25 02:47:28;;;;;;;34.33;10.27;;;2.30;99.90;;;;;;4970350;28;20376;-59
2021/10/25 02:49:54;;;;;;;16.57;9.40;;;2.30;99.90;;;;;;4967562;28;20173;-60
2021/10/25 02:52:19;;;;;;;14.33;9.77;;;2.30;99.90;;;;;;4968580;28;20444;-59
2021/10/25 02:54:45;;;;;;;22.83;8.90;;;2.20;99.90;;;;;;4968238;28;20201;-59
2021/10/25 02:57:11;;;;;;;23.30;9.23;;;2.20;99.90;;;;;;4968023;28;20174;-59
2021/10/25 02:59:37;;;;;;;16.60;8.20;;;2.20;99.90;;;;;;4970253;28;20945;-59
2021/10/25 03:02:03;;;;;;;13.20;9.40;;;2.20;99.90;;;;;;4966809;28;20182;-59
2021/10/25 03:04:29;;;;;;;15.57;9.50;;;2.20;99.90;;;;;;4969047;28;20202;-60
2021/10/25 03:06:55;;;;;;;16.23;8.63;;;2.20;99.90;;;;;;4962567;28;21007;-59
2021/10/25 03:09:21;;;;;;;15.40;8.50;;;2.20;99.90;;;;;;4970838;28;20497;-60
2021/10/25 03:11:46;;;;;;;12.50;8.20;;;2.20;99.90;;;;;;4961751;28;20217;-59
2021/10/25 03:14:12;;;;;;;13.17;8.03;;;2.20;99.90;;;;;;4958165;28;20288;-59
2021/10/25 03:16:38;;;;;;;26.73;8.80;;;2.20;99.90;;;;;;4974066;28;20269;-59
2021/10/25 03:19:03;;;;;;;11.57;8.13;;;2.20;99.90;;;;;;4960657;28;20695;-60
2021/10/25 03:21:29;;;;;;;13.50;8.63;;;2.10;99.90;;;;;;4958541;28;20264;-59
2021/10/25 03:23:58;;;;;;;12.07;8.10;;;2.10;99.90;;;;;;4960172;28;20208;-59
2021/10/25 03:26:25;;;;;;;17.13;9.27;;;2.10;99.90;;;;;;4959271;28;20201;-59
2021/10/25 03:28:50;;;;;;;17.23;9.10;;;2.10;99.90;;;;;;4959131;28;20433;-59
2021/10/25 03:31:19;;;;;;;13.70;9.20;;;2.10;99.90;;;;;;4960030;28;20483;-59
2021/10/25 03:33:46;;;;;;;11.27;7.60;;;2.10;99.90;;;;;;4960324;28;20206;-59
2021/10/25 03:36:12;;;;;;;11.03;8.10;;;2.10;99.90;;;;;;4960538;28;20450;-60
2021/10/25 03:38:39;;;;;;;10.30;8.27;;;2.10;99.90;;;;;;4962018;28;20590;-60
2021/10/25 03:41:10;;;;;;;12.50;7.90;;;2.00;99.90;;;;;;4964106;28;20435;-59
2021/10/25 03:43:41;;;;;;;12.17;7.97;;;2.00;99.90;;;;;;4955902;28;21027;-59
2021/10/25 03:46:19;;;;;;;10.40;7.70;;;1.90;99.90;;;;;;4959836;28;20446;-60
2021/10/25 03:48:51;;;;;;;10.90;7.63;;;1.90;99.90;;;;;;4961386;28;20446;-59
2021/10/25 03:51:18;;;;;;;10.30;7.57;;;1.90;99.90;;;;;;4959034;28;20461;-59
2021/10/25 04:29:14;;;;;;;41.23;12.20;;;1.80;99.90;;;;;;4951281;28;20437;-56
2021/10/25 04:31:40;;;;;;;22.53;9.57;;;1.80;99.90;;;;;;4959819;28;20475;-57
2021/10/25 04:34:06;;;;;;;15.93;9.37;;;1.80;99.90;;;;;;4978368;28;20869;-60
2021/10/25 04:36:31;;;;;;;19.27;9.70;;;1.80;99.90;;;;;;4965011;28;20183;-58
2021/10/25 04:38:57;;;;;;;13.13;8.07;;;1.80;99.90;;;;;;4960655;28;20662;-61
2021/10/25 04:41:22;;;;;;;11.00;7.83;;;1.80;99.90;;;;;;4962245;28;20336;-60
2021/10/25 04:43:48;;;;;;;15.20;8.60;;;1.80;99.90;;;;;;4957722;28;20198;-59
2021/10/25 04:46:14;;;;;;;14.37;8.80;;;1.80;99.90;;;;;;4961624;28;20572;-58
2021/10/25 04:48:39;;;;;;;10.87;7.93;;;1.80;99.90;;;;;;4960885;28;20186;-60
2021/10/25 04:51:06;;;;;;;10.87;7.33;;;1.90;99.90;;;;;;4963862;28;20211;-59
2021/10/25 04:53:32;;;;;;;11.90;7.93;;;1.90;99.90;;;;;;4960078;28;20419;-60
2021/10/25 04:55:58;;;;;;;10.87;6.93;;;1.90;99.90;;;;;;4963980;28;20515;-60
2021/10/25 04:58:23;;;;;;;10.57;7.40;;;1.90;99.90;;;;;;4963322;28;20232;-60
2021/10/25 05:00:49;;;;;;;9.87;7.20;;;1.90;99.90;;;;;;4972126;28;20664;-59
2021/10/25 05:03:15;;;;;;;9.77;7.30;;;1.90;99.90;;;;;;4971445;28;20768;-60
2021/10/25 05:05:40;;;;;;;10.53;7.00;;;1.90;99.90;;;;;;4963310;28;20639;-59
2021/10/25 05:08:06;;;;;;;18.30;8.57;;;1.90;99.90;;;;;;4966784;28;20434;-59
2021/10/25 05:10:32;;;;;;;14.30;9.57;;;1.90;99.90;;;;;;4962036;28;20298;-60
2021/10/25 05:12:59;;;;;;;15.80;10.10;;;1.90;99.90;;;;;;4968537;28;20220;-59
2021/10/25 05:15:25;;;;;;;14.47;10.03;;;1.90;99.90;;;;;;4972022;28;20195;-59
2021/10/25 05:17:51;;;;;;;15.17;9.27;;;1.90;99.90;;;;;;4972577;28;20424;-60
2021/10/25 05:20:16;;;;;;;15.53;8.93;;;1.90;99.90;;;;;;4971748;28;20271;-59
2021/10/25 05:22:42;;;;;;;15.33;8.60;;;1.90;99.90;;;;;;4960655;28;20186;-60
2021/10/25 05:25:08;;;;;;;18.87;8.90;;;1.90;99.90;;;;;;4957482;28;20416;-60
2021/10/25 05:27:35;;;;;;;17.20;9.60;;;1.90;99.90;;;;;;4964201;28;20255;-59
2021/10/25 05:30:01;;;;;;;12.83;8.83;;;1.90;99.90;;;;;;4962338;28;20440;-59
2021/10/25 05:32:26;;;;;;;14.40;9.10;;;1.90;99.90;;;;;;4971535;28;20456;-59
2021/10/25 05:34:52;;;;;;;15.63;9.70;;;1.90;99.90;;;;;;4956600;28;20498;-60
2021/10/25 05:37:18;;;;;;;18.67;11.10;;;1.90;99.90;;;;;;4971541;28;20177;-60
2021/10/25 05:39:44;;;;;;;13.90;9.37;;;1.90;99.90;;;;;;4972199;28;20619;-58
2021/10/25 05:42:10;;;;;;;16.10;9.40;;;1.90;99.90;;;;;;4971170;28;20426;-59
2021/10/25 05:44:36;;;;;;;14.97;9.30;;;1.90;99.90;;;;;;4971182;28;20204;-59
2021/10/25 05:47:02;;;;;;;17.23;10.13;;;1.80;99.90;;;;;;4969860;28;20435;-59
2021/10/25 05:49:28;;;;;;;16.43;9.20;;;1.80;99.90;;;;;;4972979;28;20475;-59
2021/10/25 05:51:54;;;;;;;13.10;8.70;;;1.80;99.90;;;;;;4967392;28;20482;-59
2021/10/25 05:54:20;;;;;;;17.30;9.33;;;1.80;99.90;;;;;;4965952;28;20208;-59
2021/10/25 05:56:47;;;;;;;17.80;9.60;;;1.80;99.90;;;;;;4972163;28;20455;-59
2021/10/25 05:59:13;;;;;;;14.23;9.50;;;1.80;99.90;;;;;;4969845;28;20180;-59
2021/10/25 06:01:44;;;;;;;12.17;8.90;;;1.80;99.90;;;;;;4969212;28;20531;-59
2021/10/25 06:04:12;;;;;;;15.90;10.60;;;1.80;99.90;;;;;;4971247;28;20474;-60
2021/10/25 06:06:38;;;;;;;12.40;9.20;;;1.80;99.90;;;;;;4970837;28;20478;-59
2021/10/25 06:09:05;;;;;;;14.27;9.10;;;1.80;99.90;;;;;;4970143;28;20427;-60
2021/10/25 06:11:32;;;;;;;12.47;8.50;;;1.80;99.90;;;;;;4970280;28;20516;-59
2021/10/25 06:14:03;;;;;;;18.20;9.10;;;1.80;99.90;;;;;;4969915;28;20978;-59
2021/10/25 06:17:13;;;;;;;11.67;7.90;;;1.80;99.90;;;;;;4970996;28;20966;-59
2021/10/25 06:19:21;;;;;;;15.40;8.70;;;1.80;99.90;;;;;;4963252;28;20420;-58
2021/10/25 06:21:47;;;;;;;14.50;9.10;;;1.80;99.90;;;;;;4968359;28;20928;-59
2021/10/25 06:24:12;;;;;;;10.40;8.10;;;1.80;99.90;;;;;;4970113;28;20685;-59
2021/10/25 06:26:38;;;;;;;13.80;8.90;;;1.70;99.90;;;;;;4971660;28;20182;-59
2021/10/25 06:29:03;;;;;;;11.77;7.93;;;1.70;99.90;;;;;;4967631;28;20181;-60
2021/10/25 06:31:31;;;;;;;11.20;8.20;;;1.70;99.90;;;;;;4962235;28;20227;-58
2021/10/25 06:34:03;;;;;;;12.90;8.10;;;1.70;99.90;;;;;;4969542;28;20668;-59
2021/10/25 06:36:31;;;;;;;13.70;9.07;;;1.70;99.90;;;;;;4970671;28;20942;-59
2021/10/25 06:39:09;;;;;;;13.13;7.83;;;1.70;99.90;;;;;;4971344;28;20823;-59
2021/10/25 06:41:35;;;;;;;12.43;7.83;;;1.80;99.90;;;;;;4966213;28;20446;-60
2021/10/25 06:44:01;;;;;;;13.07;8.93;;;1.80;99.90;;;;;;4969235;28;20455;-59
2021/10/25 06:46:27;;;;;;;13.20;8.40;;;1.80;99.90;;;;;;4970666;28;20236;-59
2021/10/25 06:48:52;;;;;;;12.63;8.70;;;1.90;99.90;;;;;;4966620;28;21209;-59
2021/10/25 06:51:18;;;;;;;11.87;9.20;;;1.90;99.90;;;;;;4961113;28;20269;-59
2021/10/25 06:53:44;;;;;;;17.13;9.30;;;1.90;99.90;;;;;;4962636;28;20276;-59
2021/10/25 06:56:10;;;;;;;19.03;11.20;;;2.00;99.90;;;;;;4965630;28;20953;-61
2021/10/25 06:58:35;;;;;;;16.77;10.07;;;2.10;99.90;;;;;;4960060;28;20189;-60
2021/10/25 07:01:02;;;;;;;16.60;10.30;;;2.10;99.90;;;;;;4965477;28;20235;-60
2021/10/25 07:03:28;;;;;;;16.03;10.40;;;2.20;99.90;;;;;;4962400;28;20263;-59
2021/10/25 07:05:54;;;;;;;16.57;10.37;;;2.20;99.90;;;;;;4966590;28;20482;-60
2021/10/25 07:08:20;;;;;;;17.60;10.17;;;2.20;99.90;;;;;;4983911;28;21005;-61
2021/10/25 07:10:46;;;;;;;21.57;11.13;;;2.20;99.90;;;;;;4965296;28;20518;-61
2021/10/25 07:13:12;;;;;;;22.53;12.20;;;2.30;99.90;;;;;;4964212;28;20566;-61
2021/10/25 07:15:46;;;;;;;19.97;12.03;;;2.30;99.90;;;;;;4969985;28;20459;-61
2021/10/25 07:18:22;;;;;;;35.93;11.47;;;2.40;99.90;;;;;;4969920;28;20203;-61
2021/10/25 07:21:06;;;;;;;20.90;11.17;;;2.40;99.90;;;;;;4966821;28;20433;-60
2021/10/25 08:09:22;;;;;;;13.80;8.70;;;3.70;99.90;;;;;;4959062;28;20177;-60
2021/10/25 08:12:02;;;;;;;12.50;9.43;;;3.80;99.90;;;;;;4955585;28;20437;-61
2021/10/25 08:14:32;;;;;;;19.60;9.20;;;3.80;99.90;;;;;;4968230;28;20613;-60
2021/10/25 08:16:58;;;;;;;12.90;9.00;;;3.90;99.90;;;;;;4962250;28;20433;-60
2021/10/25 08:22:12;;;;;;;12.80;8.50;;;4.00;99.90;;;;;;4973746;28;20440;-60
2021/10/25 08:24:40;;;;;;;12.77;8.10;;;4.10;99.90;;;;;;4971396;28;20209;-60
2021/10/25 08:27:07;;;;;;;10.60;6.80;;;4.10;99.90;;;;;;4968911;28;20425;-60
2021/10/25 08:29:34;;;;;;;11.30;7.63;;;4.20;99.90;;;;;;4977583;28;20447;-60
2021/10/25 08:39:52;;;;;;;9.07;6.30;;;4.60;99.90;;;;;;4963200;28;20433;-60
2021/10/25 08:42:21;;;;;;;9.67;7.10;;;4.70;99.90;;;;;;4962021;28;20417;-61
2021/10/25 08:44:54;;;;;;;11.53;8.60;;;4.80;99.90;;;;;;4955009;28;20556;-60
2021/10/25 08:47:24;;;;;;;11.60;7.30;;;4.90;99.90;;;;;;4966181;28;20479;-59
2021/10/25 08:49:50;;;;;;;22.50;9.33;;;5.00;99.90;;;;;;4972202;28;20425;-59
2021/10/25 08:52:21;;;;;;;19.07;10.50;;;5.10;99.90;;;;;;5083573;23;20562;-59
2021/10/25 08:54:53;;;;;;;20.57;10.93;;;5.20;99.90;;;;;;4984949;28;20563;-60
2021/10/25 08:57:19;;;;;;;31.27;10.00;;;5.30;99.90;;;;;;4992003;28;20459;-60
2021/10/25 08:59:55;;;;;;;18.03;9.47;;;5.40;99.90;;;;;;4986760;28;20946;-60
2021/10/25 09:02:21;;;;;;;18.77;9.17;;;5.50;99.90;;;;;;4970963;28;20448;-60
2021/10/25 09:05:05;;;;;;;15.03;8.77;;;5.50;99.90;;;;;;4971791;28;20460;-60
2021/10/25 09:07:54;;;;;;;24.93;8.80;;;5.60;99.90;;;;;;4972724;28;20181;-59
2021/10/25 09:10:25;;;;;;;16.70;8.47;;;5.70;99.90;;;;;;4980914;28;20432;-60
2021/10/25 09:13:00;;;;;;;24.20;9.90;;;5.80;99.90;;;;;;4981486;28;20821;-60
2021/10/25 09:15:40;;;;;;;18.63;10.13;;;6.00;99.90;;;;;;4967321;28;20484;-60
2021/10/25 09:18:12;;;;;;;16.63;8.63;;;6.10;99.90;;;;;;4974077;28;20414;-59
2021/10/25 09:21:05;;;;;;;15.27;8.40;;;6.30;99.90;;;;;;4964017;28;20441;-61
2021/10/25 09:23:37;;;;;;;16.07;7.43;;;6.50;99.90;;;;;;4972166;28;20793;-60
2021/10/25 09:26:31;;;;;;;19.50;8.57;;;6.70;99.90;;;;;;4971002;28;20484;-59
2021/10/25 09:29:02;;;;;;;21.40;8.20;;;6.80;99.90;;;;;;4970007;28;20428;-60
2021/10/25 09:31:34;;;;;;;12.10;7.40;;;6.90;99.90;;;;;;4986554;28;20868;-60
2021/10/25 09:34:08;;;;;;;17.97;7.93;;;7.00;99.90;;;;;;4981155;28;20421;-60
2021/10/25 09:37:00;;;;;;;16.30;8.37;;;7.10;99.90;;;;;;4972628;28;20521;-60
2021/10/25 09:39:39;;;;;;;18.20;8.20;;;7.20;99.90;;;;;;4974183;28;20514;-60
2021/10/25 09:50:10;;;;;;;17.33;9.40;;;7.70;99.90;;;;;;4979259;28;20434;-60
2021/10/25 09:52:39;;;;;;;18.27;9.60;;;7.80;99.90;;;;;;4974016;28;20458;-60
2021/10/25 09:55:11;;;;;;;21.63;10.83;;;7.80;99.90;;;;;;4971313;28;20466;-59
2021/10/25 09:57:49;;;;;;;;;;;;;;;;;;;;;
2021/10/25 10:00:08;;;;;;;20.80;11.27;;;8.10;99.90;;;;;;4965032;28;20496;-59
2021/10/25 10:02:35;;;;;;;17.43;11.20;;;8.30;99.90;;;;;;4970615;28;20597;-60
2021/10/25 10:05:04;;;;;;;20.97;11.50;;;8.50;99.90;;;;;;4969972;28;20520;-60
2021/10/25 10:07:30;;;;;;;21.13;11.70;;;8.80;99.90;;;;;;4983949;28;20511;-60
2021/10/25 10:09:56;;;;;;;23.03;11.30;;;9.10;99.90;;;;;;4970428;28;20461;-59
2021/10/25 10:12:24;;;;;;;18.47;12.13;;;9.40;99.90;;;;;;4971668;28;20488;-60
2021/10/25 10:14:56;;;;;;;27.30;12.77;;;9.70;99.90;;;;;;4968918;28;20464;-61
2021/10/25 10:17:41;;;;;;;24.07;12.60;;;9.90;99.90;;;;;;4971473;28;20425;-60
2021/10/25 10:20:12;;;;;;;22.30;13.00;;;10.00;99.60;;;;;;4972276;28;20447;-60
2021/10/25 10:22:41;;;;;;;24.10;13.90;;;10.30;99.60;;;;;;4972230;28;20476;-60
2021/10/25 10:25:08;;;;;;;28.80;14.53;;;10.50;99.00;;;;;;4957774;28;20465;-60
2021/10/25 10:27:34;;;;;;;25.17;14.47;;;10.70;97.80;;;;;;4968244;28;20774;-60
2021/10/25 10:30:00;;;;;;;28.17;17.17;;;10.80;96.40;;;;;;4967978;28;20450;-60
2021/10/25 10:32:32;;;;;;;27.27;16.17;;;10.80;96.80;;;;;;4970273;28;20449;-60
2021/10/25 10:35:08;;;;;;;33.90;17.60;;;10.90;96.70;;;;;;4972998;28;20471;-60
2021/10/25 10:37:41;;;;;;;32.33;18.20;;;11.00;96.60;;;;;;4970381;28;20433;-60
2021/10/25 10:40:07;;;;;;;28.00;16.83;;;11.20;97.00;;;;;;4970568;28;20931;-60
2021/10/25 10:42:35;;;;;;;31.60;16.47;;;11.50;97.20;;;;;;4972560;28;20445;-60
2021/10/25 10:45:06;;;;;;;25.03;15.53;;;11.60;95.30;;;;;;4975280;28;21036;-60
2021/10/25 10:48:05;;;;;;;23.43;15.73;;;11.90;95.60;;;;;;4971078;28;20429;-60
2021/10/25 10:50:36;;;;;;;32.20;16.50;;;12.10;95.80;;;;;;4967602;28;20505;-60
2021/10/25 10:53:24;;;;;;;30.33;16.40;;;12.30;93.10;;;;;;4970274;28;20464;-61
2021/10/25 10:55:55;;;;;;;24.93;14.80;;;12.40;92.40;;;;;;4976734;28;20796;-60
2021/10/25 10:58:46;;;;;;;24.60;14.33;;;12.40;91.30;;;;;;4976234;28;20433;-60
2021/10/25 11:01:13;;;;;;;33.47;14.80;;;12.30;91.80;;;;;;4957538;28;21032;-59
2021/10/25 11:03:39;;;;;;;27.23;15.53;;;12.30;92.60;;;;;;4966405;28;20501;-60
2021/10/25 11:06:11;;;;;;;25.10;15.10;;;12.30;92.60;;;;;;4964775;28;20513;-60
2021/10/25 11:08:44;;;;;;;27.03;15.50;;;12.40;92.50;;;;;;4964545;28;21053;-60
2021/10/25 11:11:21;;;;;;;26.30;15.67;;;12.40;92.60;;;;;;4964363;28;20880;-58
2021/10/25 11:14:06;;;;;;;30.60;15.13;;;12.50;93.30;;;;;;4966920;28;20465;-61
2021/10/25 11:19:03;;;;;;;30.30;15.53;;;12.70;92.20;;;;;;4979572;28;20595;-59
2021/10/25 11:21:35;;;;;;;24.83;14.80;;;12.80;90.90;;;;;;4976999;28;20449;-60
2021/10/25 11:24:06;;;;;;;29.70;15.70;;;12.90;91.40;;;;;;4966547;28;20687;-60
2021/10/25 11:27:01;;;;;;;29.00;14.90;;;13.10;91.40;;;;;;4967705;28;20452;-61
2021/10/25 11:29:27;;;;;;;22.33;14.17;;;13.40;91.20;;;;;;4953196;28;20441;-61
2021/10/25 11:31:54;;;;;;;20.20;12.80;;;13.60;88.60;;;;;;4960429;28;20456;-60
2021/10/25 11:34:23;;;;;;;22.47;13.40;;;13.80;87.50;;;;;;4967315;28;20798;-61
2021/10/25 11:36:51;;;;;;;19.30;12.23;;;13.90;82.30;;;;;;4961650;28;20449;-61
2021/10/25 11:39:52;;;;;;;21.07;12.50;;;14.10;80.30;;;;;;4965969;28;20436;-60
2021/10/25 11:42:27;;;;;;;19.60;12.40;;;14.50;77.20;;;;;;4961812;28;20961;-61
2021/10/25 11:44:58;;;;;;;22.33;12.53;;;15.30;72.60;;;;;;4963380;28;20556;-58
2021/10/25 11:47:26;;;;;;;19.77;11.17;;;15.90;69.40;;;;;;4962798;28;20472;-59
2021/10/25 11:50:00;;;;;;;17.87;11.40;;;16.80;66.80;;;;;;4958202;28;20426;-59
2021/10/25 11:52:26;;;;;;;15.93;10.23;;;18.00;64.20;;;;;;4963387;28;20548;-59
2021/10/25 11:54:54;;;;;;;18.90;11.40;;;19.20;57.30;;;;;;4965689;28;20524;-59
2021/10/25 11:57:23;;;;;;;16.40;9.90;;;20.30;53.60;;;;;;4963322;28;20523;-59
2021/10/25 12:00:09;;;;;;;17.40;9.27;;;21.20;50.80;;;;;;4970011;28;20429;-60
2021/10/25 12:02:36;;;;;;;12.10;8.30;;;22.10;48.70;;;;;;4965702;28;20448;-60
2021/10/25 12:05:03;;;;;;;7.27;6.23;;;22.90;47.20;;;;;;4962827;28;20448;-59
2021/10/25 12:07:29;;;;;;;12.60;6.80;;;23.70;44.60;;;;;;4965069;28;20507;-60
2021/10/25 12:10:05;;;;;;;14.00;6.47;;;24.10;42.10;;;;;;4965119;28;20726;-60
2021/10/25 12:12:31;;;;;;;6.55;5.25;;;24.60;39.90;;;;;;4965026;28;20224;-60
2021/10/25 12:15:02;;;;;;;9.13;6.57;;;24.90;38.40;;;;;;4959103;28;20272;-60
2021/10/25 12:17:34;;;;;;;9.80;7.28;;;25.00;37.80;;;;;;4959216;28;20192;-62
2021/10/25 12:20:08;;;;;;;12.48;7.25;;;25.20;38.20;;;;;;4966320;28;20175;-61
2021/10/25 12:22:34;;;;;;;8.75;6.30;;;25.60;37.80;;;;;;4961584;28;20277;-61
2021/10/25 12:25:01;;;;;;;7.35;5.93;;;25.80;37.30;;;;;;4963754;28;20336;-61
2021/10/25 12:27:42;;;;;;;6.95;5.63;;;26.10;36.70;;;;;;4955719;28;20170;-61
2021/10/25 12:30:15;;;;;;;5.72;5.00;;;26.30;35.90;;;;;;4960733;28;20322;-61
2021/10/25 12:32:55;;;;;;;9.85;5.85;;;26.60;34.80;;;;;;4960074;28;20199;-60
2021/10/25 12:35:43;;;;;;;5.93;4.30;;;26.70;34.10;;;;;;4952470;28;20220;-59
2021/10/25 12:38:12;;;;;;;4.35;3.55;;;26.50;32.50;;;;;;4953374;28;20274;-61
2021/10/25 12:40:44;;;;;;;7.72;3.83;;;26.30;31.70;;;;;;4963255;28;20942;-60
2021/10/25 12:43:10;;;;;;;5.18;3.53;;;26.30;31.00;;;;;;4955440;28;20194;-60
2021/10/25 12:45:45;;;;;;;4.57;4.15;;;26.10;29.80;;;;;;4976744;28;20852;-61
2021/10/25 12:48:13;;;;;;;5.50;3.83;;;25.40;30.60;;;;;;4960732;28;20177;-62
2021/10/25 12:50:42;;;;;;;8.77;6.18;;;24.30;33.10;;;;;;4962550;28;20679;-63
2021/10/25 12:53:14;;;;;;;10.02;6.90;;;23.40;34.50;;;;;;4960074;28;20673;-62
2021/10/25 12:55:52;;;;;;;9.23;5.80;;;22.50;36.30;;;;;;4966461;28;20350;-61
2021/10/25 12:58:21;;;;;;;2.93;2.63;;;21.60;37.40;;;;;;4961146;28;20208;-60
2021/10/25 13:00:47;;;;;;;3.57;3.03;;;20.90;37.00;;;;;;4957956;28;20170;-58
2021/10/25 13:03:14;;;;;;;5.73;2.80;;;20.70;35.40;;;;;;4965047;28;21233;-59
2021/10/25 13:05:43;;;;;;;7.10;5.10;;;21.20;35.00;;;;;;4965612;28;20202;-61
2021/10/25 13:08:09;;;;;;;7.30;4.30;;;21.90;34.30;;;;;;4964434;28;21200;-61
2021/10/25 13:10:38;;;;;;;6.37;3.30;;;22.50;33.80;;;;;;4965887;28;20532;-60
2021/10/25 13:13:09;;;;;;;5.03;3.57;;;23.10;32.50;;;;;;4981447;28;20837;-60
2021/10/25 13:15:36;;;;;;;3.20;2.90;;;23.50;32.70;;;;;;4965396;28;20437;-60
2021/10/25 13:18:05;;;;;;;4.23;3.33;;;23.80;32.50;;;;;;4966316;28;20910;-61
2021/10/25 13:20:33;;;;;;;4.17;3.10;;;23.90;32.40;;;;;;4967621;28;20992;-61
2021/10/25 13:23:02;;;;;;;4.13;3.40;;;23.80;32.70;;;;;;4964273;28;20570;-61
2021/10/25 13:25:28;;;;;;;4.13;3.40;;;23.40;32.60;;;;;;4964730;28;20457;-60
2021/10/25 13:27:57;;;;;;;3.47;2.67;;;22.70;33.20;;;;;;4962884;28;20467;-61
2021/10/25 13:30:24;;;;;;;6.10;3.50;;;22.00;32.90;;;;;;4957368;28;20524;-61
2021/10/25 13:32:51;;;;;;;5.20;3.27;;;21.50;34.00;;;;;;4964731;28;20449;-61
2021/10/25 13:35:17;;;;;;;14.93;3.30;;;20.90;34.60;;;;;;4966633;28;20425;-61
2021/10/25 13:37:45;;;;;;;6.70;3.60;;;20.50;35.60;;;;;;4960774;28;21023;-61
2021/10/25 13:40:13;;;;;;;5.70;3.90;;;20.00;35.20;;;;;;4965877;28;20783;-61
2021/10/25 13:42:38;;;;;;;6.90;3.90;;;19.70;36.50;;;;;;4965277;28;20503;-61
2021/10/25 13:45:05;;;;;;;7.90;3.87;;;19.50;37.40;;;;;;4960893;28;20461;-61
2021/10/25 13:47:32;;;;;;;11.10;4.30;;;19.40;38.00;;;;;;4963070;28;20180;-61
2021/10/25 13:49:57;;;;;;;7.70;4.80;;;19.40;38.70;;;;;;4965237;28;20954;-60
2021/10/25 13:52:25;;;;;;;8.40;4.00;;;19.40;38.50;;;;;;4958288;28;20598;-60
2021/10/25 13:54:50;;;;;;;6.13;3.10;;;19.40;39.50;;;;;;4961812;28;20190;-59
2021/10/25 13:57:22;;;;;;;5.33;3.20;;;19.30;38.10;;;;;;4962679;28;20491;-60
2021/10/25 13:59:49;;;;;;;5.30;2.97;;;19.20;37.60;;;;;;4964127;28;20181;-60
2021/10/25 14:02:16;;;;;;;4.23;2.90;;;19.00;37.10;;;;;;4963277;28;20445;-60
2021/10/25 14:04:50;;;;;;;8.07;3.67;;;18.80;37.60;;;;;;4962273;28;20461;-60
2021/10/25 14:07:21;;;;;;;7.73;3.90;;;18.90;38.20;;;;;;4964893;28;20432;-60
2021/10/25 14:09:55;;;;;;;5.30;3.70;;;18.80;38.60;;;;;;4960132;28;20887;-59
2021/10/25 14:12:27;;;;;;;6.97;3.90;;;18.40;38.80;;;;;;4975971;28;20559;-59
2021/10/25 14:15:04;;;;;;;5.40;3.57;;;17.90;39.80;;;;;;4959359;28;20927;-60
2021/10/25 14:17:29;;;;;;;8.53;4.10;;;17.50;40.80;;;;;;4959123;28;20435;-62
2021/10/25 14:19:55;;;;;;;3.53;2.67;;;17.00;41.90;;;;;;4963109;28;20808;-59
2021/10/25 14:22:21;;;;;;;4.03;3.07;;;16.60;41.00;;;;;;4961126;28;20245;-60
2021/10/25 14:24:47;;;;;;;2.77;2.50;;;16.30;40.10;;;;;;4962310;28;20201;-59
2021/10/25 14:27:14;;;;;;;4.37;3.20;;;16.00;39.70;;;;;;4964192;28;20437;-62
2021/10/25 14:29:40;;;;;;;6.30;4.27;;;15.70;40.20;;;;;;4961319;28;20528;-60
2021/10/25 14:32:08;;;;;;;8.37;5.13;;;15.50;41.10;;;;;;4961788;28;20495;-58
2021/10/25 14:34:33;;;;;;;7.27;5.33;;;15.30;43.10;;;;;;4965480;28;20974;-61